• Join FlightAware (Why Join?)
  • Login
  • US Flag 
12:13PM EST


 

Airport Tracker/Info


-or-


 

Live Flight TrackerFlight Track Log ✈ PDT4456 ✈ 13-Jun-2013 ✈ KSYR - KBOS

Flight Track Log - Related Links

Times and Time Zones

All times are in EDT time to prevent confusion due to time zone crossing. See the PDT4456 flight status page for this flight to view local times or setup timezone preferences in your user account.

Time Position Orientation Groundspeed Altitude Reporting Facility
EDT Latitude Longitude Course Direction KTS MPH feet Rate Location/Type
05:24PM 43.1083 -76.1064 144° Southeast 70 81 1,000  Level Boston Center
05:25PM 43.1097 -76.0694 87° East 102 117 2,600 1,320 Climbing Boston Center
05:26PM 43.0942 -76.0317 119° Southeast 121 139 3,700 660 Climbing Boston Center
05:27PM 43.1148 -75.9341 16° North  Level FlightAware Approximate
05:27PM 43.0728 -75.9819 120° Southeast 168 193 4,000  Level Boston Center
05:28PM 43.1128 -75.8461 144° Southeast  Level FlightAware Approximate
05:28PM 43.0431 -75.9319 129° Southeast 173 199 5,000  Level Boston Center
05:29PM 43.0582 -75.7915 144° Southeast  Level FlightAware Approximate
05:29PM 43.0153 -75.8850 129° Southeast 168 193 6,400  Level Boston Center
05:30PM 42.9894 -75.8408 129° Southeast 185 213 7,500 1,020 Climbing Boston Center
05:31PM 42.9514 -75.7878 134° Southeast 172 198 8,500 900 Climbing Boston Center
05:32PM 42.9214 -75.7492 137° Southeast 181 208 9,400 900 Climbing Boston Center
05:33PM 42.8833 -75.6961 134° Southeast 186 214 10,400 1,020 Climbing Boston Center
05:34PM 42.8414 -75.6286 130° Southeast 191 220 11,500 960 Climbing Boston Center
05:35PM 42.8033 -75.5672 130° Southeast 196 226 12,400 840 Climbing Boston Center
05:36PM 42.7761 -75.4981 118° Southeast 203 234 13,200 780 Climbing Boston Center
05:37PM 42.7742 -75.4186 92° East 198 228 14,000 780 Climbing Boston Center
05:38PM 42.7719 -75.3367 92° East 208 239 14,800 600 Climbing Boston Center
05:39PM 42.7717 -75.2686 90° East 213 245 15,300 600 Climbing Boston Center
05:40PM 42.7697 -75.1725 92° East 218 251 16,100 540 Climbing Boston Center
05:41PM 42.7678 -75.0817 92° East 218 251 16,600 420 Climbing Boston Center
05:42PM 42.7681 -74.9800 90° East 223 257 17,100 240 Climbing Boston Center
05:43PM 42.7639 -74.8836 93° East 229 264 17,100  Level Boston Center
05:44PM 42.7619 -74.7733 91° East 250 288 17,100 -60 Level Boston Center
05:45PM 42.7639 -74.6828 88° East 263 303 17,000 -60 Descending Boston Center
05:46PM 42.7661 -74.5725 88° East 263 303 17,000  Level Boston Center
05:47PM 42.7636 -74.4792 92° East 263 303 17,000  Level Boston Center
05:48PM 42.7592 -74.3686 93° East 263 303 17,000  Level Boston Center
05:49PM 42.7544 -74.2694 94° East 268 308 17,000  Level Boston Center
05:50PM 42.7519 -74.1678 92° East 274 315 17,000  Level Boston Center
05:51PM 42.7536 -74.0661 89° East 274 315 17,000  Level Boston Center
05:52PM 42.7511 -73.9442 92° East 274 315 17,000  Level Boston Center
05:53PM 42.7461 -73.8425 94° East 274 315 17,000  Level Boston Center
05:54PM 42.7494 -73.7378 87° East 274 315 17,000  Level Boston Center
05:55PM 42.7567 -73.6333 85° East 268 308 17,000  Level Boston Center
05:56PM 42.7642 -73.5317 84° East 268 308 17,000  Level Boston Center
05:57PM 42.7733 -73.4300 83° East 268 308 17,000  Level Boston Center
05:59PM 42.7719 -73.3311 91° East 266 306 17,000  Level Boston Center
06:00PM 42.7519 -73.2233 104° East 266 306 17,000  Level Boston Center
06:01PM 42.7319 -73.1072 103° East 260 299 17,000  Level Boston Center
06:02PM 42.7136 -72.9997 103° East 260 299 17,000 -60 Level Boston Center
06:03PM 42.7017 -72.9119 100° East 260 299 16,900 -600 Descending Boston Center
06:04PM 42.6811 -72.8044 105° East 266 306 15,900 -1,020 Descending Boston Center
06:05PM 42.6564 -72.6969 107° East 284 327 14,900 -1,020 Descending Boston Center
06:06PM 42.6378 -72.5842 103° East 296 341 13,900 -1,020 Descending Boston Center
06:07PM 42.6214 -72.4711 101° East 301 346 12,900 -1,020 Descending Boston Center
06:08PM 42.6047 -72.3583 101° East 301 346 11,900 -1,080 Descending Boston Center
06:09PM 42.5817 -72.2400 105° East 290 334 10,800 -1,080 Descending Boston Center
06:10PM 42.5667 -72.1442 102° East 284 327 9,800 -900 Descending Boston Center
06:11PM 42.5497 -72.0342 102° East 278 320 9,000 -420 Descending Boston Center
06:12PM 42.5411 -71.9556 98° East 244 281 9,000  Level Boston Center
06:13PM 42.5303 -71.8597 99° East 237 273 9,000  Level Boston Center
06:14PM 42.5194 -71.7781 100° East 237 273 9,000  Level Boston Center
06:15PM 42.5083 -71.6853 99° East 237 273 9,000 -300 Level Boston Center
06:16PM 42.4953 -71.6067 103° East 237 273 8,400 -720 Descending Boston Center
06:16PM 42.4833 -71.5667 112° Southeast 244 281 8,100 -1,080 Descending KA90
06:17PM 42.5000 -71.4833 75° East 235 270 7,100 -1,080 Descending KA90
06:18PM 42.5333 -71.4000 61° Northeast 243 280 6,000 -540 Descending KA90
06:19PM 42.5667 -71.3000 66° East 237 273 6,000  Level KA90
06:20PM 42.5833 -71.2333 71° East 227 261 6,000 -420 Level KA90
06:21PM 42.5667 -71.1333 103° East 233 268 5,200 -840 Descending KA90
06:22PM 42.5500 -71.0833 114° Southeast 223 257 4,400 -1,320 Descending KA90
06:23PM 42.5167 -71.0167 124° Southeast 201 231 2,900 -1,500 Descending KA90